Flight Track Log - Related Links

Times and Time Zones

All times are in EST time to prevent confusion due to time zone crossing. See the N100MJ flight status page for this flight to view local times or setup timezone preferences in your user account.

Time Position Orientation Groundspeed Altitude Reporting Facility
EST Latitude Longitude Course Direction KTS MPH feet Rate Location/Type
Fri 12:14:42 PM 38.2850 -76.4328 217° Southwest 175 201 4,400  Level Washington Center
Fri 12:15:00 PM 38.3717 -76.4935 218° Southwest  Level Estimated
Fri 12:15:43 PM 38.2514 -76.4747 224° Southwest 175 201 4,400  Level Washington Center
Fri 12:16:00 PM 38.3428 -76.5216 217° Southwest  Level Estimated
Fri 12:16:44 PM 38.2156 -76.5114 219° Southwest 175 201 4,400  Level Washington Center
Fri 12:17:00 PM 38.3140 -76.5497 217° Southwest  Level Estimated
Fri 12:17:44 PM 38.1819 -76.5506 222° Southwest 170 196 4,400  Level Washington Center
Fri 12:18:00 PM 38.2851 -76.5778 217° Southwest  Level Estimated
Fri 12:18:42 PM 38.1481 -76.5897 222° Southwest 165 190 4,400  Level Washington Center
Fri 12:19:00 PM 38.2562 -76.6058 217° Southwest  Level Estimated
Fri 12:19:43 PM 38.1125 -76.6264 219° Southwest 165 190 4,400  Level Washington Center
Fri 12:20:00 PM 38.2272 -76.6338 217° Southwest  Level Estimated
Fri 12:20:44 PM 38.0808 -76.6600 220° Southwest 165 190 4,400  Level Washington Center
Fri 12:21:42 PM 38.0431 -76.6964 217° Southwest 171 197 4,400  Level Washington Center
Fri 12:22:43 PM 38.0050 -76.7328 217° Southwest 171 197 4,400  Level Washington Center
Fri 12:23:44 PM 37.9714 -76.7692 220° Southwest 171 197 4,400  Level Washington Center
Fri 12:24:44 PM 37.9336 -76.8056 217° Southwest 171 197 4,400  Level Washington Center
Fri 12:25:42 PM 37.8978 -76.8392 217° Southwest 171 197 4,400  Level Washington Center
Fri 12:26:42 PM 37.8639 -76.8753 220° Southwest 171 197 4,400  Level Washington Center
Fri 12:27:43 PM 37.8281 -76.9117 219° Southwest 166 191 4,400  Level Washington Center
Fri 12:28:43 PM 37.7922 -76.9453 217° Southwest 166 191 4,400  Level Washington Center
Fri 12:29:44 PM 37.7586 -76.9814 220° Southwest 166 191 4,400  Level Washington Center
Fri 12:30:42 PM 37.7247 -77.0175 220° Southwest 160 184 4,400 390 Level Washington Center
Fri 12:33:04 PM 37.6333 -77.1000 216° Southwest 165 190 5,700 535 Climbing Potomac TRACON
Fri 12:34:04 PM 37.6000 -77.1333 218° Southwest 157 181 6,200 350 Climbing Potomac TRACON
Fri 12:35:04 PM 37.5667 -77.1667 218° Southwest 162 186 6,400 95 Climbing Potomac TRACON
Fri 12:36:10 PM 37.5333 -77.2167 230° Southwest 165 190 6,400  Level Potomac TRACON
Fri 12:37:05 PM 37.5000 -77.2333 202° Southwest 156 180 6,400  Level Potomac TRACON
Fri 12:38:05 PM 37.4667 -77.2667 218° Southwest 169 194 6,400 50 Level Potomac TRACON
Fri 12:39:05 PM 37.4333 -77.3167 230° Southwest 161 185 6,500  Climbing Potomac TRACON
Fri 12:40:05 PM 37.4000 -77.3500 218° Southwest 161 185 6,400 -50 Descending Potomac TRACON
Fri 12:41:05 PM 37.3667 -77.3833 218° Southwest 156 180 6,400  Level Potomac TRACON
Fri 12:42:06 PM 37.3333 -77.4167 218° Southwest 167 192 6,400  Level Potomac TRACON
Fri 12:43:06 PM 37.2833 -77.4500 208° Southwest 158 182 6,400  Level Potomac TRACON
Fri 12:44:06 PM 37.2500 -77.4833 219° Southwest 160 184 6,400  Level Potomac TRACON
Fri 12:45:07 PM 37.2167 -77.5167 219° Southwest 164 189 6,400  Level Potomac TRACON
Fri 12:46:07 PM 37.1833 -77.5500 219° Southwest 161 185 6,400  Level Potomac TRACON
Fri 12:47:30 PM 37.1344 -77.5978 218° Southwest 161 185 6,400  Level Washington Center
Fri 12:48:30 PM 37.1006 -77.6283 216° Southwest 161 185 6,400  Level Washington Center
Fri 12:49:31 PM 37.0644 -77.6636 218° Southwest 161 185 6,400  Level Washington Center
Fri 12:50:31 PM 37.0306 -77.6967 218° Southwest 161 185 6,400  Level Washington Center
Fri 12:51:32 PM 36.9986 -77.7322 222° Southwest 161 185 6,400  Level Washington Center
Fri 12:52:32 PM 36.9625 -77.7650 216° Southwest 161 185 6,400  Level Washington Center
Fri 12:53:30 PM 36.9328 -77.7981 222° Southwest 161 185 6,400  Level Washington Center
Fri 12:54:31 PM 36.8967 -77.8281 214° Southwest 161 185 6,400  Level Washington Center
Fri 12:55:31 PM 36.8628 -77.8608 218° Southwest 161 185 6,400  Level Washington Center
Fri 12:56:31 PM 36.8267 -77.8961 218° Southwest 161 185 6,400  Level Washington Center
Fri 12:57:32 PM 36.7925 -77.9289 218° Southwest 161 185 6,400  Level Washington Center
Fri 12:58:30 PM 36.7586 -77.9614 218° Southwest 161 185 6,400  Level Washington Center
Fri 12:59:31 PM 36.7225 -77.9967 218° Southwest 161 185 6,400  Level Washington Center
Fri 01:00:29 PM 36.6906 -78.0294 219° Southwest 161 185 6,400 50 Level Washington Center
Fri 01:01:31 PM 36.6542 -78.0644 218° Southwest 161 185 6,500 49 Climbing Washington Center
Fri 01:02:32 PM 36.6181 -78.0944 214° Southwest 161 185 6,500  Level Washington Center
Fri 01:02:56 PM 36.6011 -78.1172 227° Southwest 160 184 6,500  Level Washington Center
Fri 01:03:30 PM 36.5842 -78.1294 210° Southwest 161 185 6,500  Level Washington Center
Fri 01:03:51 PM 36.5669 -78.1469 219° Southwest 161 185 6,500  Level Washington Center
Fri 01:04:31 PM 36.5478 -78.1672 220° Southwest 161 185 6,500  Level Washington Center
Fri 01:04:43 PM 36.5372 -78.1769 217° Southwest 160 184 6,500  Level Washington Center
Fri 01:05:32 PM 36.5117 -78.1942 208° Southwest 161 185 6,500  Level Washington Center
Fri 01:06:02 PM 36.4881 -78.2219 223° Southwest 160 184 6,500  Level Washington Center
Fri 01:06:30 PM 36.4775 -78.2344 224° Southwest 161 185 6,500  Level Washington Center
Fri 01:06:45 PM 36.4667 -78.2444 217° Southwest 160 184 6,500  Level Washington Center
Fri 01:07:32 PM 36.4433 -78.2694 221° Southwest 161 185 6,500  Level Washington Center
Fri 01:07:53 PM 36.4242 -78.2842 212° Southwest 160 184 6,500  Level Washington Center
Fri 01:08:30 PM 36.4072 -78.3017 220° Southwest 161 185 6,500  Level Washington Center
Fri 01:09:29 PM 36.3667 -78.3392 217° Southwest 161 185 6,500  Level Washington Center
Fri 01:10:18 PM 36.3389 -78.3639 216° Southwest 163 188 6,500  Level Washington Center
Fri 01:10:30 PM 36.3347 -78.3689 224° Southwest 161 185 6,500  Level Washington Center
Fri 01:11:19 PM 36.3067 -78.4014 223° Southwest 165 190 6,500  Level Washington Center
Fri 01:11:31 PM 36.3003 -78.4114 232° Southwest 161 185 6,500  Level Washington Center
Fri 01:12:19 PM 36.2744 -78.4442 226° Southwest 156 180 6,500  Level Washington Center
Fri 01:12:31 PM 36.2742 -78.4492 266° West 161 185 6,500 -98 Level Washington Center
Fri 01:13:20 PM 36.2483 -78.4894 232° Southwest 156 180 6,400  Descending Washington Center
Fri 01:13:57 PM 36.2289 -78.5119 223° Southwest 156 180 6,500 61 Climbing Washington Center
Fri 01:14:58 PM 36.2050 -78.5497 232° Southwest 156 180 6,500  Level Washington Center
Fri 01:15:58 PM 36.1747 -78.5950 230° Southwest 157 181 6,500  Level Washington Center
Fri 01:16:59 PM 36.1486 -78.6350 231° Southwest 157 181 6,500  Level Washington Center
Fri 01:17:54 PM 36.1206 -78.6750 229° Southwest 157 181 6,500  Level Washington Center
Fri 01:19:13 PM 36.0817 -78.7250 226° Southwest 158 182 6,500 -49 Level Washington Center
Fri 01:19:56 PM 36.0622 -78.7550 231° Southwest 159 183 6,400 -175 Descending Washington Center
Fri 01:20:56 PM 36.0319 -78.7950 227° Southwest 164 189 6,200 -198 Descending Washington Center
Fri 01:21:57 PM 35.9972 -78.8422 228° Southwest 168 193 6,000 -197 Descending Washington Center
Fri 01:22:58 PM 35.9669 -78.8819 227° Southwest 166 191 5,800 -197 Descending Washington Center
Fri 01:23:59 PM 35.9386 -78.9244 231° Southwest 160 184 5,600 -248 Descending Washington Center
Fri 01:24:59 PM 35.9083 -78.9642 227° Southwest 159 183 5,300 -246 Descending Washington Center
Fri 01:26:01 PM 35.8736 -79.0089 226° Southwest 161 185 5,100 -197 Descending Washington Center
Fri 01:27:01 PM 35.8375 -79.0356 211° Southwest 171 197 4,900 -209 Descending Washington Center
Fri 01:27:56 PM 35.7969 -79.0594 206° Southwest 173 199 4,700 -250 Descending Washington Center
Fri 01:29:01 PM 35.7503 -79.0856 204° Southwest 172 198 4,400 -288 Descending Washington Center
Fri 01:30:01 PM 35.7078 -79.1144 209° Southwest 172 198 4,100 -300 Descending Washington Center
Fri 01:32:00 PM 35.5289 -79.2025 202° Southwest  Level FlightAware Approximate
Fri 01:39:00 PM 35.2333 -79.3833 207° Southwest  Level FlightAware Approximate
Fri 01:40:00 PM 35.2380 -79.3883 207° Southwest  Level Estimated
Fri 01:41:00 PM 35.2333 -79.3833 207° Southwest  Level FlightAware Approximate
Fri 01:42:00 PM 35.2380 -79.3883 207° Southwest  Level Estimated
Fri 01:43:00 PM 35.2333 -79.3833 207° Southwest  Level FlightAware Approximate
Fri 01:44:00 PM 35.2380 -79.3883 207° Southwest  Level Estimated

Login

Don't have an account? Register now (free) for customized features, flight alerts, and more!